Etusivu
METAR-TAF:

METAR-TAF

Lentoasemat :

Kööpenhaminan lentoasema

Kööpenhamina, Tanska

Leveyspiiri: 55-37N, Pituuspiiri: 012-39E, korkeus merenpinnasta: 5 m

Tämänhetkinen sää

Tämä raportti tehtiin 27 minuuttia sitten, kello 16.20 UTC
Tuuli 7 kn etelästä/kaakosta
Lämpötila 22°C
Kosteus 60%
Ilmanpaine 1023 hPa
Näkyvyys 10 km tai enemmän

METAR: EKCH 111620Z AUTO 16007KT 9999 NCD 22/14 Q1023 NOSIG

Aika: 18:47 (16:47 UTC)

Sääennuste

Tämä raportti tehtiin 3 tuntia ja 19 minuuttia sitten, kello 13.28 UTC
Ennuste voimassa 11. päivästä klo 13 UTC - 12. päivään klo 12 UTC
Tuuli 12 kn etelästä
Näkyvyys 10 km tai enemmän
ei pilviä alle 1500 m:ssä eikä cumulonimbus-pilviä
Tulossa
11. päivästä klo 14 UTC - 11. päivään klo 17 UTC
Tuuli 10 kn idästä/kaakosta

TAF: EKCH 111328Z 1113/1212 17012KT CAVOK BECMG 1114/1117 11010KT

Säähavainnot ja -ennusteet yli 4000 lentoasemalta (METAR- ja TAF-raportit).

Käytössä olevat sääasemat on merkitty karttaan keltaisilla ja punaisilla pisteillä.

Aseta hiiri pisteen päälle nähdäksesi sääaseman nimen.

Klikkaa sitten nähdäksesi säähavainnot ja -ennusteet.

Kartan vaihtaminen: klikkaa mustalla rastilla varustettuja vihreitä pisteitä, niin voit zoomata sisään; viivalla varustettua vihreää pistettä, niin voit zoomata ulos tai vihreitä nuolia, niin pääset viereisille kartoille.


METAR-TAF: